Time;durP1;ratioP1;P1;durP2;ratioP2;P2;SDS_P1;SDS_P2;PMS_P1;PMS_P2;Temp;Humidity;BMP_temperature;BMP_pressure;BME280_temperature;BME280_humidity;BME280_pressure;Samples;Min_cycle;Max_cycle;Signal;HPM_P1;HPM_P2
2022/11/27 00:00:13;;;;;;;7.00;3.20;;;;;;;12.17;100.00;101478.41;2085529;28;20052;-76
2022/11/27 00:01:37;;;;;;;7.63;3.45;;;;;;;12.18;100.00;101481.94;2092369;28;20056;-75
2022/11/27 00:03:00;;;;;;;5.40;3.25;;;;;;;12.16;100.00;101481.91;2086332;28;20136;-76
2022/11/27 00:04:22;;;;;;;4.45;2.47;;;;;;;12.15;100.00;101488.06;2083829;28;20056;-76
2022/11/27 00:05:51;;;;;;;7.05;3.10;;;;;;;12.14;100.00;101486.25;2092064;28;20589;-76
2022/11/27 00:07:15;;;;;;;6.35;2.63;;;;;;;12.14;100.00;101480.09;2086187;28;20056;-76
2022/11/27 00:08:36;;;;;;;6.53;2.92;;;;;;;12.13;100.00;101475.66;2083069;28;20045;-76
2022/11/27 00:09:59;;;;;;;5.75;2.47;;;;;;;12.12;100.00;101474.78;2078494;28;20061;-75
2022/11/27 00:11:23;;;;;;;6.30;2.75;;;;;;;12.13;100.00;101473.03;2075624;28;20557;-75
2022/11/27 00:12:46;;;;;;;6.47;2.60;;;;;;;12.13;100.00;101473.03;2076367;28;20056;-75
2022/11/27 00:14:09;;;;;;;4.85;2.40;;;;;;;12.14;100.00;101478.31;2082367;28;20045;-75
2022/11/27 00:15:32;;;;;;;6.47;2.40;;;;;;;12.12;100.00;101482.72;2076001;28;20108;-75
2022/11/27 00:16:56;;;;;;;7.65;2.60;;;;;;;12.11;100.00;101477.38;2088890;28;20052;-75
2022/11/27 00:18:18;;;;;;;5.32;2.42;;;;;;;12.08;100.00;101478.19;2094743;28;20391;-75
2022/11/27 00:19:41;;;;;;;4.43;2.53;;;;;;;12.06;100.00;101473.75;2084844;28;20037;-75
2022/11/27 00:21:04;;;;;;;7.93;3.40;;;;;;;12.05;100.00;101470.22;2080442;28;20053;-75
2022/11/27 00:22:28;;;;;;;5.93;2.80;;;;;;;12.04;100.00;101470.16;2095435;28;20028;-76
2022/11/27 00:23:51;;;;;;;5.57;2.50;;;;;;;12.03;100.00;101463.09;2097201;28;20048;-75
2022/11/27 00:25:12;;;;;;;6.45;2.70;;;;;;;11.98;100.00;101463.91;2094593;28;20081;-75
2022/11/27 00:26:35;;;;;;;3.90;2.67;;;;;;;11.94;100.00;101464.72;2088134;28;20144;-75
2022/11/27 00:27:57;;;;;;;8.07;3.17;;;;;;;11.91;100.00;101458.44;2094597;28;20102;-75
2022/11/27 00:29:18;;;;;;;6.78;3.03;;;;;;;11.89;100.00;101457.50;2080011;28;20057;-75
2022/11/27 00:30:41;;;;;;;6.55;2.80;;;;;;;11.86;100.00;101462.75;2082612;28;20041;-75
2022/11/27 00:32:05;;;;;;;7.85;3.47;;;;;;;11.85;100.00;101463.59;2085337;28;20584;-76
2022/11/27 00:33:27;;;;;;;4.68;2.85;;;;;;;11.81;100.00;101462.66;2093836;28;20045;-76
2022/11/27 00:34:49;;;;;;;5.50;2.50;;;;;;;11.82;100.00;101458.22;2088031;28;20039;-76
2022/11/27 00:36:12;;;;;;;5.60;2.70;;;;;;;11.83;100.00;101452.97;2096947;28;20061;-76
2022/11/27 00:37:36;;;;;;;6.05;2.63;;;;;;;11.85;100.00;101447.72;2089057;28;20053;-76
2022/11/27 00:38:58;;;;;;;9.35;2.80;;;;;;;11.85;100.00;101442.44;2081757;28;20118;-75
2022/11/27 00:40:20;;;;;;;7.18;2.70;;;;;;;11.84;100.00;101444.19;2083622;28;20124;-75
2022/11/27 00:41:42;;;;;;;8.75;4.07;;;;;;;11.82;100.00;101439.72;2091851;28;20105;-75
2022/11/27 00:43:04;;;;;;;14.88;8.25;;;;;;;11.83;100.00;101445.03;2093559;28;20536;-76
2022/11/27 00:44:26;;;;;;;5.72;3.58;;;;;;;11.82;100.00;101448.53;2094312;28;20062;-75
2022/11/27 00:45:48;;;;;;;5.05;3.00;;;;;;;11.82;100.00;101452.94;2094478;28;20070;-77
2022/11/27 00:47:10;;;;;;;;;;;;;;;11.74;100.00;101457.19;2086717;28;20037;-76
2022/11/27 00:48:33;;;;;;;4.20;2.38;;;;;;;11.69;100.00;101459.69;2082250;28;20734;-76
2022/11/27 00:49:56;;;;;;;4.50;2.78;;;;;;;11.62;100.00;101463.03;2091859;28;20047;-77
2022/11/27 00:51:19;;;;;;;7.32;2.90;;;;;;;11.55;100.00;101467.31;2094090;28;20048;-76
2022/11/27 00:52:44;;;;;;;5.13;2.63;;;;;;;11.49;100.00;101469.81;2096786;28;20126;-76
2022/11/27 00:54:07;;;;;;;10.38;2.60;;;;;;;11.47;100.00;101476.84;2081701;28;20048;-76
2022/11/27 00:55:28;;;;;;;5.47;2.88;;;;;;;11.49;100.00;101487.41;2082713;28;20055;-76
2022/11/27 00:56:51;;;;;;;4.38;2.78;;;;;;;11.51;100.00;101489.25;2091602;28;20040;-75
2022/11/27 00:58:13;;;;;;;6.90;2.80;;;;;;;11.49;100.00;101482.13;2085156;28;20156;-75
2022/11/27 00:59:36;;;;;;;5.15;2.70;;;;;;;11.45;100.00;101481.19;2088639;28;20045;-75
2022/11/27 01:00:59;;;;;;;10.73;3.17;;;;;;;11.42;100.00;101480.22;2086570;28;20101;-75
2022/11/27 01:02:22;;;;;;;5.88;2.53;;;;;;;11.38;100.00;101478.34;2093880;28;20047;-75
2022/11/27 01:03:43;;;;;;;5.80;2.20;;;;;;;11.37;100.00;101476.56;2077506;28;20075;-75
2022/11/27 01:05:06;;;;;;;5.80;3.03;;;;;;;11.37;100.00;101481.84;2077625;28;20049;-76
2022/11/27 01:06:30;;;;;;;6.15;2.70;;;;;;;11.37;100.00;101481.84;2092308;28;20113;-75
2022/11/27 01:07:54;;;;;;;6.55;2.40;;;;;;;11.37;100.00;101481.84;2089367;28;20040;-75
2022/11/27 01:09:16;;;;;;;5.53;2.58;;;;;;;11.35;100.00;101486.22;2090843;28;20576;-75
2022/11/27 01:10:38;;;;;;;6.95;2.90;;;;;;;11.35;100.00;101480.94;2091970;28;20087;-75
2022/11/27 01:12:00;;;;;;;7.18;2.67;;;;;;;11.34;100.00;101481.78;2090812;28;20056;-76
2022/11/27 01:13:23;;;;;;;4.60;2.60;;;;;;;11.33;100.00;101472.97;2096817;28;20052;-75
2022/11/27 01:14:45;;;;;;;5.88;2.45;;;;;;;11.35;100.00;101471.25;2102862;28;20036;-75
2022/11/27 01:16:08;;;;;;;6.35;2.47;;;;;;;11.36;100.00;101483.59;2096854;28;20139;-75
2022/11/27 01:17:31;;;;;;;6.28;2.53;;;;;;;11.37;100.00;101487.13;2077964;28;20421;-75
2022/11/27 01:18:56;;;;;;;5.95;2.63;;;;;;;11.39;100.00;101490.72;2083594;28;20416;-76
2022/11/27 01:20:18;;;;;;;5.88;3.05;;;;;;;11.38;100.00;101491.56;2086227;28;20076;-76
2022/11/27 01:21:42;;;;;;;6.32;2.80;;;;;;;11.37;100.00;101490.69;2090461;28;20071;-75
2022/11/27 01:23:05;;;;;;;9.60;2.63;;;;;;;11.36;100.00;101490.63;2099976;28;20081;-76
2022/11/27 01:24:27;;;;;;;6.63;2.88;;;;;;;11.35;100.00;101484.47;2088754;28;20451;-76
2022/11/27 01:25:49;;;;;;;4.88;2.45;;;;;;;11.38;100.00;101491.56;2085460;28;20048;-76
2022/11/27 01:27:11;;;;;;;5.97;2.58;;;;;;;11.39;100.00;101493.38;2075091;28;20370;-75
2022/11/27 01:28:35;;;;;;;4.75;2.58;;;;;;;11.43;100.00;101497.84;2089318;28;20052;-76
2022/11/27 01:29:57;;;;;;;5.78;1.92;;;;;;;11.45;100.00;101496.16;2102841;28;20047;-75
2022/11/27 01:31:21;;;;;;;7.13;3.38;;;;;;;11.48;100.00;101491.84;2087621;28;20079;-75
2022/11/27 01:32:44;;;;;;;7.57;3.00;;;;;;;11.50;100.00;101492.75;2091166;28;20048;-75
2022/11/27 01:34:08;;;;;;;5.10;2.45;;;;;;;11.50;100.00;101495.41;2094196;28;20045;-75
2022/11/27 01:35:30;;;;;;;5.35;2.40;;;;;;;11.50;100.00;101487.47;2089970;28;20459;-75
2022/11/27 01:36:52;;;;;;;5.70;2.65;;;;;;;11.49;100.00;101488.31;2094273;28;20108;-75
2022/11/27 01:38:15;;;;;;;5.95;2.80;;;;;;;11.50;100.00;101498.03;2083853;28;20048;-75
2022/11/27 01:39:37;;;;;;;5.90;2.63;;;;;;;11.50;100.00;101499.78;2085727;28;20053;-75
2022/11/27 01:41:01;;;;;;;4.80;2.50;;;;;;;11.49;100.00;101498.00;2094268;28;20126;-75
2022/11/27 01:42:23;;;;;;;6.30;2.83;;;;;;;11.48;100.00;101497.13;2088656;28;20542;-75
2022/11/27 01:43:46;;;;;;;5.25;2.70;;;;;;;11.48;100.00;101501.53;2088526;28;20056;-75
2022/11/27 01:45:11;;;;;;;6.00;2.67;;;;;;;11.49;100.00;101498.00;2077285;28;20707;-75
2022/11/27 01:46:37;;;;;;;5.13;2.60;;;;;;;11.51;100.00;101499.84;2083610;28;20079;-75
2022/11/27 01:48:01;;;;;;;5.80;2.65;;;;;;;11.53;100.00;101502.53;2085863;28;20041;-75
2022/11/27 01:49:30;;;;;;;5.93;2.80;;;;;;;11.52;100.00;101506.91;2083705;28;20045;-75
2022/11/27 01:50:52;;;;;;;6.05;2.78;;;;;;;11.52;100.00;101504.25;2078371;28;20049;-75
2022/11/27 01:52:19;;;;;;;4.22;2.33;;;;;;;11.53;100.00;101505.16;2091528;28;20106;-75
2022/11/27 01:53:44;;;;;;;7.30;2.65;;;;;;;11.52;100.00;101508.66;2093301;28;20045;-75
2022/11/27 01:55:10;;;;;;;5.22;2.60;;;;;;;11.52;100.00;101501.63;2087535;28;20060;-76
2022/11/27 01:56:33;;;;;;;6.78;2.08;;;;;;;11.51;100.00;101504.22;2086414;28;20033;-75
2022/11/27 01:58:00;;;;;;;5.07;2.90;;;;;;;11.51;100.00;101496.28;2091608;28;20041;-75
2022/11/27 01:59:22;;;;;;;7.10;2.90;;;;;;;11.48;100.00;101491.84;2095896;28;20032;-75
2022/11/27 02:00:45;;;;;;;3.80;2.28;;;;;;;11.46;100.00;101488.25;2086463;28;20525;-75
2022/11/27 02:02:06;;;;;;;5.25;2.53;;;;;;;11.47;100.00;101483.88;2083059;28;20056;-75
2022/11/27 02:03:29;;;;;;;6.20;2.70;;;;;;;11.49;100.00;101484.78;2077275;28;20054;-75
2022/11/27 02:04:51;;;;;;;5.90;2.63;;;;;;;11.49;100.00;101487.41;2085167;28;20048;-76
2022/11/27 02:06:13;;;;;;;;;;;;;;;11.45;100.00;101482.94;2091634;28;20052;-76
2022/11/27 02:07:34;;;;;;;3.85;2.70;;;;;;;11.46;100.00;101485.63;2092707;28;20437;-75
2022/11/27 02:08:59;;;;;;;5.20;2.22;;;;;;;11.47;100.00;101473.28;2093911;28;20695;-75
2022/11/27 02:10:22;;;;;;;5.28;2.20;;;;;;;11.49;100.00;101474.19;2080009;28;20054;-75
2022/11/27 02:11:53;;;;;;;4.50;2.55;;;;;;;11.53;100.00;101482.25;2082896;28;20611;-75
2022/11/27 02:13:21;;;;;;;5.55;2.50;;;;;;;11.56;100.00;101479.66;2087069;28;20116;-75
2022/11/27 02:14:53;;;;;;;4.72;2.72;;;;;;;11.61;100.00;101482.44;2089714;28;20055;-75
2022/11/27 02:16:22;;;;;;;4.43;2.28;;;;;;;11.64;100.00;101481.59;2095108;28;20052;-74
2022/11/27 02:17:49;;;;;;;6.93;2.78;;;;;;;11.66;100.00;101480.78;2092375;28;20053;-75
2022/11/27 02:19:20;;;;;;;5.25;2.80;;;;;;;11.68;100.00;101473.78;2095459;28;20048;-74
2022/11/27 02:20:54;;;;;;;7.93;2.42;;;;;;;11.70;100.00;101468.50;2095715;28;20040;-75
2022/11/27 02:22:32;;;;;;;5.22;2.80;;;;;;;11.74;100.00;101468.69;2094517;28;20109;-75
2022/11/27 02:24:13;;;;;;;6.30;2.47;;;;;;;11.77;100.00;101479.31;2091724;28;20139;-75
2022/11/27 02:25:51;;;;;;;5.75;2.60;;;;;;;11.79;100.00;101482.00;2089317;28;20053;-75
2022/11/27 02:27:49;;;;;;;5.10;2.40;;;;;;;11.79;100.00;101484.63;2095921;28;20048;-75
2022/11/27 02:29:14;;;;;;;4.60;2.45;;;;;;;11.78;100.00;101482.84;2093298;28;20053;-75
2022/11/27 02:30:41;;;;;;;5.35;2.53;;;;;;;11.77;100.00;101465.19;2085872;28;20056;-75
2022/11/27 02:32:10;;;;;;;4.93;2.40;;;;;;;11.77;100.00;101471.38;2091216;28;20492;-74
2022/11/27 02:33:38;;;;;;;6.32;2.95;;;;;;;11.78;100.00;101473.16;2094643;28;20055;-75
2022/11/27 02:35:05;;;;;;;4.57;2.30;;;;;;;11.79;100.00;101474.94;2093067;28;20044;-75
2022/11/27 02:36:33;;;;;;;4.65;2.20;;;;;;;11.79;100.00;101474.94;2093793;28;20600;-75
2022/11/27 02:38:00;;;;;;;4.70;2.38;;;;;;;11.79;100.00;101474.94;2093583;28;20123;-75
2022/11/27 02:39:29;;;;;;;4.43;2.72;;;;;;;11.77;100.00;101468.72;2096075;28;20036;-74
2022/11/27 02:40:57;;;;;;;6.63;2.88;;;;;;;11.76;100.00;101461.63;2078381;28;20099;-75
2022/11/27 02:42:21;;;;;;;4.78;2.80;;;;;;;11.77;100.00;101463.44;2088753;28;20052;-75
2022/11/27 02:43:47;;;;;;;3.47;2.47;;;;;;;11.79;100.00;101461.72;2085396;28;20033;-75
2022/11/27 02:45:15;;;;;;;6.20;2.88;;;;;;;11.81;100.00;101461.75;2092226;28;20151;-76
2022/11/27 02:46:38;;;;;;;4.28;2.03;;;;;;;11.82;100.00;101460.88;2102620;28;20442;-75
2022/11/27 02:48:00;;;;;;;6.00;2.60;;;;;;;11.83;100.00;101465.31;2087778;28;20053;-75
2022/11/27 02:49:22;;;;;;;6.15;2.78;;;;;;;11.82;100.00;101460.88;2101547;28;20098;-75
2022/11/27 02:50:46;;;;;;;5.05;2.63;;;;;;;11.82;100.00;101468.81;2087763;28;20044;-75
2022/11/27 02:52:12;;;;;;;5.47;2.50;;;;;;;11.82;100.00;101463.53;2089450;28;20082;-75
2022/11/27 02:53:43;;;;;;;5.65;2.40;;;;;;;11.79;100.00;101459.06;2077655;28;20054;-75
2022/11/27 02:55:08;;;;;;;5.70;2.20;;;;;;;11.80;100.00;101467.91;2091036;28;20151;-75
2022/11/27 02:56:33;;;;;;;4.50;2.10;;;;;;;11.77;100.00;101457.25;2085208;28;20055;-75
2022/11/27 02:57:58;;;;;;;4.35;2.38;;;;;;;11.77;100.00;101455.50;2090652;28;20564;-75
2022/11/27 02:59:23;;;;;;;5.38;2.42;;;;;;;11.74;100.00;101458.09;2079671;28;20485;-75
2022/11/27 03:00:48;;;;;;;5.70;2.83;;;;;;;11.73;100.00;101456.28;2075172;28;20135;-75
2022/11/27 03:02:17;;;;;;;5.63;2.08;;;;;;;11.73;100.00;101461.56;2088845;28;20186;-75
2022/11/27 03:03:55;;;;;;;5.25;2.45;;;;;;;11.72;100.00;101459.75;2088647;28;20163;-76
2022/11/27 03:05:20;;;;;;;5.20;2.58;;;;;;;11.74;100.00;101463.38;2095477;28;20656;-76
2022/11/27 03:06:46;;;;;;;4.28;2.40;;;;;;;11.75;100.00;101459.84;2081927;28;20066;-76
2022/11/27 03:08:14;;;;;;;4.38;2.58;;;;;;;11.76;100.00;101461.63;2088289;28;20640;-76
2022/11/27 03:09:39;;;;;;;4.47;2.47;;;;;;;11.75;100.00;101451.06;2100628;28;20093;-75
2022/11/27 03:11:04;;;;;;;3.92;2.60;;;;;;;11.75;100.00;101451.06;2087377;28;20140;-76
2022/11/27 03:12:26;;;;;;;5.05;2.42;;;;;;;11.73;100.00;101444.78;2093844;28;20044;-75
2022/11/27 03:13:53;;;;;;;5.03;2.30;;;;;;;11.76;100.00;101448.41;2087773;28;20036;-76
2022/11/27 03:15:16;;;;;;;4.65;2.47;;;;;;;11.77;100.00;101446.66;2085621;28;20099;-75
2022/11/27 03:16:46;;;;;;;6.65;2.30;;;;;;;11.79;100.00;101450.25;2090684;28;20045;-75
2022/11/27 03:18:17;;;;;;;7.15;3.00;;;;;;;11.81;100.00;101449.44;2093390;28;20040;-75
2022/11/27 03:19:46;;;;;;;5.25;2.70;;;;;;;11.82;100.00;101447.66;2092907;28;20052;-76
2022/11/27 03:21:21;;;;;;;6.53;2.80;;;;;;;11.81;100.00;101446.78;2087671;28;20049;-76
2022/11/27 03:22:44;;;;;;;4.43;2.50;;;;;;;11.79;100.00;101440.56;2087754;28;20081;-76
2022/11/27 03:24:07;;;;;;;4.75;2.80;;;;;;;11.80;100.00;101447.63;2074363;28;20046;-76
2022/11/27 03:25:29;;;;;;;4.32;2.60;;;;;;;11.79;100.00;101451.13;2088682;28;20064;-75
2022/11/27 03:26:51;;;;;;;4.60;2.45;;;;;;;11.79;100.00;101444.97;2093227;28;20044;-76
2022/11/27 03:28:15;;;;;;;3.28;2.08;;;;;;;11.78;100.00;101446.72;2092377;28;20143;-75
2022/11/27 03:29:41;;;;;;;5.97;2.90;;;;;;;11.79;100.00;101448.50;2087598;28;20136;-75
2022/11/27 03:31:04;;;;;;;4.57;3.08;;;;;;;11.80;100.00;101441.47;2077106;28;20104;-75
2022/11/27 03:32:29;;;;;;;4.90;2.78;;;;;;;11.82;100.00;101445.91;2096568;28;20032;-75
2022/11/27 03:33:52;;;;;;;5.20;2.80;;;;;;;11.85;100.00;101445.09;2087404;28;20489;-75
2022/11/27 03:35:19;;;;;;;4.93;2.70;;;;;;;11.87;100.00;101444.28;2085398;28;20102;-75
2022/11/27 03:36:41;;;;;;;5.38;3.22;;;;;;;11.89;100.00;101450.47;2091067;28;20060;-75
2022/11/27 03:38:04;;;;;;;5.68;2.88;;;;;;;11.89;100.00;101447.81;2095755;28;20052;-75
2022/11/27 03:39:26;;;;;;;6.03;3.63;;;;;;;11.91;100.00;101445.22;2093030;28;20055;-75
2022/11/27 03:40:58;;;;;;;6.47;3.15;;;;;;;11.90;100.00;101443.41;2087683;28;20045;-75
2022/11/27 03:42:27;;;;;;;6.03;3.05;;;;;;;11.90;100.00;101433.72;2084915;28;20425;-75
2022/11/27 03:44:02;;;;;;;5.25;2.40;;;;;;;11.91;100.00;101432.88;2094865;28;20032;-76
2022/11/27 03:45:32;;;;;;;5.03;2.45;;;;;;;11.92;100.00;101431.13;2103366;28;20105;-75
2022/11/27 03:47:07;;;;;;;11.93;2.65;;;;;;;11.93;100.00;101439.09;2102738;28;20386;-75
2022/11/27 03:48:36;;;;;;;4.10;2.47;;;;;;;11.96;100.00;101443.53;2099823;28;20135;-75
2022/11/27 03:50:13;;;;;;;5.57;2.75;;;;;;;11.96;100.00;101436.50;2094120;28;20609;-75
2022/11/27 03:51:45;;;;;;;7.35;2.58;;;;;;;12.00;100.00;101445.41;2102834;28;20047;-75
2022/11/27 03:53:12;;;;;;;5.07;2.85;;;;;;;12.00;100.00;101433.94;2087320;28;20041;-75
2022/11/27 03:54:42;;;;;;;6.28;3.00;;;;;;;11.98;100.00;101437.44;2093709;28;20109;-75
2022/11/27 03:56:12;;;;;;;5.53;3.00;;;;;;;11.97;100.00;101434.75;2086778;28;20428;-75
2022/11/27 03:57:40;;;;;;;5.53;3.42;;;;;;;11.97;100.00;101445.34;2086425;28;20641;-75
2022/11/27 03:59:08;;;;;;;5.43;2.63;;;;;;;11.99;100.00;101446.28;2090200;28;20466;-75
2022/11/27 04:00:33;;;;;;;5.45;2.85;;;;;;;12.01;100.00;101451.59;2085431;28;20079;-75
2022/11/27 04:01:55;;;;;;;5.68;2.70;;;;;;;12.01;100.00;101444.56;2091599;28;20074;-75
2022/11/27 04:03:24;;;;;;;5.45;2.65;;;;;;;12.02;100.00;101442.78;2093096;28;20159;-75
2022/11/27 04:04:48;;;;;;;4.25;2.78;;;;;;;12.00;100.00;101439.22;2085678;28;20060;-75
2022/11/27 04:06:10;;;;;;;5.93;2.67;;;;;;;11.95;100.00;101437.38;2085165;28;20044;-75
2022/11/27 04:07:32;;;;;;;5.00;2.72;;;;;;;11.95;100.00;101432.06;2089626;28;20053;-75
2022/11/27 04:08:55;;;;;;;4.65;2.78;;;;;;;11.97;100.00;101433.00;2095437;28;20057;-75
2022/11/27 04:10:16;;;;;;;5.43;2.85;;;;;;;11.99;100.00;101440.97;2079340;28;20616;-75
2022/11/27 04:11:39;;;;;;;12.02;7.05;;;;;;;12.01;100.00;101448.97;2081925;28;20048;-75
2022/11/27 04:13:00;;;;;;;17.63;9.00;;;;;;;12.01;100.00;101455.16;2079616;28;20138;-75
2022/11/27 04:14:23;;;;;;;11.68;6.10;;;;;;;12.04;100.00;101441.06;2081899;28;20068;-75
2022/11/27 04:15:45;;;;;;;11.32;6.20;;;;;;;12.04;100.00;101441.06;2076576;28;20045;-75
2022/11/27 04:17:07;;;;;;;9.35;4.97;;;;;;;12.05;100.00;101426.97;2090764;28;20041;-75
2022/11/27 04:18:29;;;;;;;;;;;;;;;11.96;100.00;101433.84;2085604;28;20052;-75
2022/11/27 04:19:52;;;;;;;7.35;4.30;;;;;;;11.94;100.00;101426.78;2089779;28;19931;-74
2022/11/27 04:21:15;;;;;;;7.90;4.10;;;;;;;11.94;100.00;101442.66;2101425;28;20044;-75
2022/11/27 04:22:37;;;;;;;10.05;4.20;;;;;;;11.94;100.00;101448.84;2103867;28;20048;-75
2022/11/27 04:23:59;;;;;;;5.93;3.42;;;;;;;11.95;100.00;101447.94;2095492;28;20059;-75
2022/11/27 04:25:20;;;;;;;6.47;3.10;;;;;;;11.96;100.00;101443.53;2095980;28;20060;-76
2022/11/27 04:26:43;;;;;;;4.13;2.60;;;;;;;11.97;100.00;101435.66;2087712;28;20039;-75
2022/11/27 04:28:04;;;;;;;4.95;2.78;;;;;;;11.97;100.00;101430.34;2081051;28;20110;-76
2022/11/27 04:29:26;;;;;;;5.90;3.35;;;;;;;11.97;100.00;101435.66;2093042;28;20445;-75
2022/11/27 04:30:52;;;;;;;4.85;2.83;;;;;;;11.98;100.00;101431.25;2087505;28;20080;-75
2022/11/27 04:32:13;;;;;;;6.35;2.80;;;;;;;11.96;100.00;101439.16;2085264;28;20148;-75
2022/11/27 04:33:36;;;;;;;5.05;2.50;;;;;;;11.97;100.00;101442.69;2084866;28;20114;-75
2022/11/27 04:35:00;;;;;;;5.55;2.58;;;;;;;12.00;100.00;101436.59;2084554;28;20482;-75
2022/11/27 04:36:22;;;;;;;5.65;3.03;;;;;;;12.02;100.00;101432.19;2087428;28;20060;-75
2022/11/27 04:37:44;;;;;;;6.00;2.22;;;;;;;12.04;100.00;101434.03;2084746;28;20486;-75
2022/11/27 04:39:06;;;;;;;5.30;2.80;;;;;;;12.06;100.00;101428.75;2077836;28;20057;-75
2022/11/27 04:40:27;;;;;;;7.13;2.55;;;;;;;12.07;100.00;101435.84;2099204;28;20104;-75
2022/11/27 04:41:50;;;;;;;5.65;3.00;;;;;;;12.06;100.00;101434.97;2097039;28;20049;-76
2022/11/27 04:43:13;;;;;;;6.72;2.92;;;;;;;12.05;100.00;101433.16;2092963;28;20048;-75
2022/11/27 04:44:35;;;;;;;4.47;2.53;;;;;;;12.05;100.00;101434.91;2094425;28;20044;-75
2022/11/27 04:45:58;;;;;;;4.60;2.33;;;;;;;12.03;100.00;101434.88;2094331;28;20041;-75
2022/11/27 04:47:21;;;;;;;7.28;2.75;;;;;;;12.03;100.00;101448.09;2094346;28;20056;-76
2022/11/27 04:48:42;;;;;;;6.03;2.40;;;;;;;12.04;100.00;101439.31;2093946;28;20114;-75
2022/11/27 04:50:07;;;;;;;6.28;2.60;;;;;;;12.06;100.00;101434.97;2102856;28;20048;-75
2022/11/27 04:51:29;;;;;;;5.15;2.95;;;;;;;12.06;100.00;101434.06;2088603;28;20045;-75
2022/11/27 04:52:51;;;;;;;4.13;2.85;;;;;;;12.08;100.00;101427.06;2097744;28;20396;-75
2022/11/27 04:54:14;;;;;;;5.20;3.10;;;;;;;12.09;100.00;101429.72;2088079;28;20102;-75
2022/11/27 04:55:35;;;;;;;6.97;2.55;;;;;;;12.10;100.00;101441.19;2092797;28;20144;-75
2022/11/27 04:56:57;;;;;;;6.28;3.08;;;;;;;12.09;100.00;101447.34;2093002;28;20037;-75
2022/11/27 04:58:20;;;;;;;5.05;2.90;;;;;;;12.09;100.00;101453.53;2077366;28;20042;-76
2022/11/27 04:59:41;;;;;;;6.75;2.78;;;;;;;12.11;100.00;101450.91;2081483;28;20098;-76
2022/11/27 05:01:04;;;;;;;6.68;3.20;;;;;;;12.08;100.00;101442.94;2077395;28;20057;-76
2022/11/27 05:02:26;;;;;;;5.78;3.08;;;;;;;12.03;100.00;101433.97;2092154;28;20097;-75
2022/11/27 05:03:49;;;;;;;4.68;2.70;;;;;;;11.97;100.00;101429.47;2095374;28;20037;-75
2022/11/27 05:05:12;;;;;;;25.17;14.57;;;;;;;11.93;100.00;101432.91;2093977;28;20665;-75
2022/11/27 05:06:35;;;;;;;20.42;12.52;;;;;;;11.92;100.00;101439.97;2094505;28;20101;-75
2022/11/27 05:07:57;;;;;;;22.45;12.85;;;;;;;11.93;100.00;101451.44;2094179;28;20040;-75
2022/11/27 05:09:20;;;;;;;35.30;24.17;;;;;;;11.94;100.00;101451.47;2086030;28;20057;-75
2022/11/27 05:10:42;;;;;;;28.92;22.88;;;;;;;11.94;100.00;101446.19;2078073;28;20132;-75
2022/11/27 05:12:05;;;;;;;24.02;17.90;;;;;;;11.93;100.00;101443.50;2089122;28;20056;-75
2022/11/27 05:13:26;;;;;;;13.05;8.75;;;;;;;11.90;100.00;101436.38;2094466;28;20101;-75
2022/11/27 05:14:49;;;;;;;9.10;6.80;;;;;;;11.90;100.00;101432.84;2102775;28;20054;-75
2022/11/27 05:16:11;;;;;;;11.27;7.90;;;;;;;11.91;100.00;101434.63;2094268;28;20048;-75
2022/11/27 05:17:33;;;;;;;13.40;7.38;;;;;;;11.92;100.00;101437.31;2083406;28;20087;-75
2022/11/27 05:18:55;;;;;;;10.45;7.88;;;;;;;11.94;100.00;101440.91;2078101;28;20485;-75
2022/11/27 05:20:20;;;;;;;14.27;11.95;;;;;;;11.96;100.00;101440.91;2091708;28;20094;-75
2022/11/27 05:21:43;;;;;;;13.43;10.10;;;;;;;11.95;100.00;101440.00;2088612;28;20044;-75
2022/11/27 05:23:05;;;;;;;10.27;6.13;;;;;;;11.97;100.00;101440.94;2086693;28;20049;-75
2022/11/27 05:24:28;;;;;;;9.38;6.57;;;;;;;12.01;100.00;101433.09;2077373;28;20472;-74
2022/11/27 05:25:51;;;;;;;6.22;4.10;;;;;;;12.02;100.00;101432.19;2086125;28;20041;-75
2022/11/27 05:27:12;;;;;;;6.88;4.43;;;;;;;12.05;100.00;101434.91;2087913;28;20044;-75
2022/11/27 05:28:34;;;;;;;9.45;7.13;;;;;;;12.08;100.00;101435.00;2094120;28;20066;-75
2022/11/27 05:29:57;;;;;;;10.35;6.72;;;;;;;12.10;100.00;101439.44;2085721;28;20044;-76
2022/11/27 05:31:18;;;;;;;10.40;7.28;;;;;;;12.14;100.00;101440.41;2091347;28;20052;-75
2022/11/27 05:32:40;;;;;;;11.55;9.00;;;;;;;12.18;100.00;101442.25;2090928;28;20050;-75
2022/11/27 05:34:02;;;;;;;13.50;8.95;;;;;;;12.22;100.00;101441.44;2093969;28;20090;-75
2022/11/27 05:35:26;;;;;;;17.92;10.23;;;;;;;12.24;100.00;101437.97;2093171;28;20052;-76
2022/11/27 05:36:48;;;;;;;14.30;10.40;;;;;;;12.27;100.00;101439.78;2096293;28;20044;-76
2022/11/27 05:38:10;;;;;;;14.07;10.55;;;;;;;12.31;100.00;101438.97;2093654;28;20057;-75
2022/11/27 05:39:33;;;;;;;14.63;11.30;;;;;;;12.32;100.00;101452.25;2085137;28;20053;-75
2022/11/27 05:40:54;;;;;;;13.57;8.85;;;;;;;12.36;100.00;101446.13;2089681;28;20477;-75
2022/11/27 05:42:17;;;;;;;13.48;9.00;;;;;;;12.39;100.00;101450.59;2095488;28;20139;-75
2022/11/27 05:43:40;;;;;;;16.15;10.82;;;;;;;12.43;100.00;101448.91;2077423;28;20545;-76
2022/11/27 05:45:03;;;;;;;17.20;9.98;;;;;;;12.46;100.00;101448.97;2089147;28;20118;-75
2022/11/27 05:46:24;;;;;;;12.25;8.52;;;;;;;12.48;100.00;101434.88;2080285;28;20038;-76
2022/11/27 05:47:47;;;;;;;14.23;9.77;;;;;;;12.51;100.00;101434.06;2093488;28;20496;-75
2022/11/27 05:49:09;;;;;;;13.23;9.93;;;;;;;12.56;100.00;101437.66;2093796;28;20095;-76
2022/11/27 05:50:34;;;;;;;15.25;9.45;;;;;;;12.58;100.00;101441.25;2085728;28;20045;-76
2022/11/27 05:51:56;;;;;;;13.77;10.13;;;;;;;12.60;100.00;101448.34;2081632;28;20107;-76
2022/11/27 05:53:17;;;;;;;13.50;9.68;;;;;;;12.63;100.00;101452.81;2091218;28;20041;-75
2022/11/27 05:54:40;;;;;;;13.15;9.45;;;;;;;12.65;100.00;101449.34;2080285;28;20033;-75
2022/11/27 05:56:03;;;;;;;14.48;9.55;;;;;;;12.68;100.00;101440.53;2082854;28;20048;-75
2022/11/27 05:57:25;;;;;;;17.00;11.60;;;;;;;12.70;100.00;101438.81;2086527;28;20052;-75
2022/11/27 05:58:47;;;;;;;16.73;11.07;;;;;;;12.71;100.00;101436.19;2092990;28;20135;-76
2022/11/27 06:00:11;;;;;;;18.23;13.35;;;;;;;12.73;100.00;101442.41;2087969;28;20040;-75
2022/11/27 06:01:33;;;;;;;22.85;15.18;;;;;;;12.76;100.00;101442.47;2091925;28;20048;-75
2022/11/27 06:02:54;;;;;;;20.73;14.27;;;;;;;12.81;100.00;101445.19;2085362;28;20182;-75
2022/11/27 06:04:17;;;;;;;22.92;16.27;;;;;;;12.84;100.00;101437.31;2099441;28;20044;-75
2022/11/27 06:05:40;;;;;;;23.40;17.83;;;;;;;12.89;100.00;101432.97;2095779;28;20105;-75
2022/11/27 06:07:02;;;;;;;29.67;20.13;;;;;;;12.94;100.00;101430.38;2089162;28;20058;-75
2022/11/27 06:08:24;;;;;;;23.38;17.23;;;;;;;12.99;100.00;101424.31;2093730;28;20591;-75
2022/11/27 06:09:46;;;;;;;23.83;21.13;;;;;;;13.06;100.00;101434.13;2085477;28;20048;-75
2022/11/27 06:11:10;;;;;;;20.00;13.98;;;;;;;13.12;100.00;101433.34;2080324;28;20130;-75
2022/11/27 06:12:32;;;;;;;22.08;17.30;;;;;;;13.18;100.00;101440.53;2091601;28;20041;-75
2022/11/27 06:13:55;;;;;;;25.90;19.73;;;;;;;13.22;100.00;101440.59;2090236;28;20094;-75
2022/11/27 06:15:18;;;;;;;25.60;18.20;;;;;;;13.27;100.00;101441.56;2083765;28;20048;-75
2022/11/27 06:16:40;;;;;;;25.10;18.23;;;;;;;13.29;100.00;101445.16;2080363;28;20087;-75
2022/11/27 06:18:03;;;;;;;28.00;18.42;;;;;;;13.30;100.00;101440.72;2074924;28;20072;-75
2022/11/27 06:19:25;;;;;;;22.20;18.10;;;;;;;13.31;100.00;101446.06;2074834;28;20528;-75
2022/11/27 06:20:49;;;;;;;24.42;20.20;;;;;;;13.34;100.00;101439.91;2090915;28;20044;-75
2022/11/27 06:22:12;;;;;;;23.95;20.35;;;;;;;13.36;100.00;101441.72;2089499;28;20075;-75
2022/11/27 06:23:34;;;;;;;33.22;29.42;;;;;;;13.43;100.00;101446.25;2091772;28;20981;-75
2022/11/27 06:24:56;;;;;;;33.03;26.67;;;;;;;13.49;100.00;101454.28;2077322;28;20036;-76